createdAt,value
2019-02-28T00:03:11.743Z,7.93
2019-02-28T00:08:18.314Z,7.97
2019-02-28T00:13:24.754Z,8.50
2019-02-28T00:19:04.137Z,8.43
2019-02-28T00:24:10.645Z,7.80
2019-02-28T00:29:17.248Z,7.83
2019-02-28T00:34:24.702Z,8.17
2019-02-28T00:39:34.651Z,7.50
2019-02-28T00:44:54.229Z,8.67
2019-02-28T00:50:00.787Z,8.10
2019-02-28T00:55:36.028Z,7.13
2019-02-28T01:00:42.832Z,8.07
2019-02-28T01:05:48.884Z,7.83
2019-02-28T01:10:55.851Z,8.43
2019-02-28T01:16:04.099Z,7.97
2019-02-28T01:21:10.882Z,8.10
2019-02-28T01:26:17.322Z,7.87
2019-02-28T01:31:24.098Z,7.70
2019-02-28T01:36:30.511Z,8.77
2019-02-28T01:41:37.949Z,9.67
2019-02-28T01:46:43.951Z,8.77
2019-02-28T01:51:49.868Z,8.97
2019-02-28T01:56:56.745Z,8.80
2019-02-28T02:02:06.645Z,8.70
2019-02-28T02:07:13.486Z,9.40
2019-02-28T02:12:20.382Z,8.57
2019-02-28T02:17:27.185Z,7.43
2019-02-28T02:22:33.844Z,8.87
2019-02-28T02:27:58.994Z,8.93
2019-02-28T02:33:05.852Z,8.80
2019-02-28T02:38:12.574Z,8.93
2019-02-28T02:43:21.989Z,9.20
2019-02-28T02:48:27.374Z,9.57
2019-02-28T02:53:41.533Z,8.80
2019-02-28T02:58:41.525Z,9.20
2019-02-28T03:03:47.387Z,8.87
2019-02-28T03:08:54.318Z,10.73
2019-02-28T03:14:01.090Z,9.33
2019-02-28T03:19:07.589Z,7.40
2019-02-28T03:24:16.261Z,9.00
2019-02-28T03:29:22.928Z,9.37
2019-02-28T03:34:29.838Z,10.07
2019-02-28T03:39:36.547Z,9.50
2019-02-28T03:45:02.618Z,9.97
2019-02-28T03:50:11.721Z,9.67
2019-02-28T03:55:18.182Z,8.87
2019-02-28T04:00:32.622Z,10.27
2019-02-28T04:05:35.383Z,10.40
2019-02-28T04:10:42.274Z,9.83
2019-02-28T04:16:07.443Z,9.50
2019-02-28T04:20:56.721Z,9.40
2019-02-28T04:26:03.431Z,9.47
2019-02-28T04:31:11.402Z,9.77
2019-02-28T04:36:18.220Z,9.27
2019-02-28T04:41:25.022Z,8.87
2019-02-28T04:46:32.609Z,9.50
2019-02-28T04:51:40.153Z,9.50
2019-02-28T04:56:47.280Z,9.50
2019-02-28T05:01:55.573Z,9.27
2019-02-28T05:07:02.656Z,10.17
2019-02-28T05:12:09.701Z,9.40
2019-02-28T05:17:19.322Z,9.90
2019-02-28T05:22:27.748Z,9.53
2019-02-28T05:27:36.446Z,8.97
2019-02-28T05:32:44.613Z,9.57
2019-02-28T05:37:50.957Z,9.20
2019-02-28T05:42:58.399Z,9.43
2019-02-28T05:48:28.097Z,9.30
2019-02-28T05:53:35.314Z,9.40
2019-02-28T05:58:43.095Z,9.50
2019-02-28T06:03:49.191Z,9.63
2019-02-28T06:08:57.114Z,8.97
2019-02-28T06:14:04.073Z,10.20
2019-02-28T06:19:11.261Z,11.20
2019-02-28T06:24:18.259Z,10.50
2019-02-28T06:29:24.948Z,11.63
2019-02-28T06:34:33.363Z,13.23
2019-02-28T06:39:40.470Z,11.00
2019-02-28T06:44:46.614Z,10.77
2019-02-28T06:49:54.341Z,11.00
2019-02-28T06:55:02.327Z,12.50
2019-02-28T07:00:17.807Z,11.93
2019-02-28T07:05:26.207Z,13.00
2019-02-28T07:10:33.679Z,12.10
2019-02-28T07:15:40.579Z,15.03
2019-02-28T07:20:47.263Z,17.67
2019-02-28T07:25:54.665Z,18.87
2019-02-28T07:31:01.706Z,20.17
2019-02-28T07:36:10.515Z,20.27
2019-02-28T07:41:20.229Z,20.20
2019-02-28T07:46:28.200Z,19.00
2019-02-28T07:51:35.443Z,22.33
2019-02-28T07:56:44.260Z,21.23
2019-02-28T08:01:52.285Z,20.40
2019-02-28T08:06:59.705Z,23.20
2019-02-28T08:12:07.734Z,23.17
2019-02-28T08:17:16.058Z,22.23
2019-02-28T08:22:24.236Z,22.87
2019-02-28T08:27:33.316Z,22.27
2019-02-28T08:32:43.785Z,23.10
2019-02-28T08:37:48.059Z,22.60
2019-02-28T08:42:55.815Z,23.20
2019-02-28T08:48:03.080Z,24.07
2019-02-28T08:53:12.396Z,26.17
2019-02-28T08:58:18.735Z,23.43
2019-02-28T09:03:27.310Z,24.63
2019-02-28T09:08:35.594Z,24.27
2019-02-28T09:13:42.970Z,22.57
2019-02-28T09:18:49.775Z,23.97
2019-02-28T09:23:58.028Z,22.07
2019-02-28T09:29:05.027Z,25.17
2019-02-28T09:34:16.112Z,25.83
2019-02-28T09:39:24.604Z,25.57
2019-02-28T09:44:32.533Z,27.63
2019-02-28T09:49:39.802Z,32.40
2019-02-28T09:54:46.968Z,28.53
2019-02-28T09:59:53.258Z,28.40
2019-02-28T10:05:02.904Z,28.73
2019-02-28T10:10:20.791Z,28.57
2019-02-28T10:15:29.598Z,29.80
2019-02-28T10:20:41.929Z,29.33
2019-02-28T10:25:48.226Z,28.37
2019-02-28T10:30:57.099Z,28.60
2019-02-28T10:36:04.063Z,27.33
2019-02-28T10:41:11.175Z,28.27
2019-02-28T10:46:20.017Z,27.80
2019-02-28T10:51:27.021Z,29.23
2019-02-28T10:56:34.054Z,27.63
2019-02-28T11:01:41.963Z,28.33
2019-02-28T11:06:48.869Z,28.57
2019-02-28T11:11:56.133Z,27.83
2019-02-28T11:17:03.602Z,28.00
2019-02-28T11:22:11.488Z,28.37
2019-02-28T11:27:19.541Z,28.77
2019-02-28T11:32:29.369Z,28.40
2019-02-28T11:37:35.916Z,26.87
2019-02-28T11:42:43.949Z,29.57
2019-02-28T11:47:52.799Z,27.93
2019-02-28T11:53:04.892Z,30.40
2019-02-28T11:58:08.809Z,30.93
2019-02-28T12:03:16.130Z,30.50
2019-02-28T12:08:23.536Z,30.67
2019-02-28T12:13:30.694Z,30.67
2019-02-28T12:18:41.563Z,30.03
2019-02-28T12:23:47.725Z,33.00
2019-02-28T12:28:54.428Z,32.87
2019-02-28T12:34:01.655Z,31.70
2019-02-28T12:39:09.706Z,31.37
2019-02-28T12:44:17.137Z,32.07
2019-02-28T12:49:26.168Z,31.27
2019-02-28T12:54:34.234Z,31.57
2019-02-28T12:59:45.957Z,33.30
2019-02-28T13:04:49.773Z,31.97
2019-02-28T13:09:57.677Z,30.57
2019-02-28T13:15:08.991Z,30.77
2019-02-28T13:20:33.692Z,30.20
2019-02-28T13:25:40.707Z,30.77
2019-02-28T13:30:50.182Z,32.07
2019-02-28T13:35:55.883Z,31.93
2019-02-28T13:41:02.875Z,29.50
2019-02-28T13:46:12.967Z,32.17
2019-02-28T13:51:18.905Z,31.90
2019-02-28T13:56:29.049Z,31.97
2019-02-28T14:01:34.659Z,33.17
2019-02-28T14:06:41.628Z,33.53
2019-02-28T14:11:48.332Z,31.93
2019-02-28T14:16:58.330Z,32.97
2019-02-28T14:22:04.819Z,32.33
2019-02-28T14:27:11.859Z,34.17
2019-02-28T14:32:19.077Z,33.80
2019-02-28T14:37:26.005Z,33.87
2019-02-28T14:42:32.928Z,33.77
2019-02-28T14:47:40.026Z,34.80
2019-02-28T14:52:46.722Z,33.40
2019-02-28T14:57:55.082Z,34.17
2019-02-28T15:03:03.023Z,34.93
2019-02-28T15:08:11.947Z,35.47
2019-02-28T15:13:20.848Z,32.87
2019-02-28T15:18:28.096Z,33.50
2019-02-28T15:23:35.108Z,33.67
2019-02-28T15:28:42.070Z,33.50
2019-02-28T15:33:48.322Z,35.90
2019-02-28T15:38:56.651Z,36.80
2019-02-28T15:44:03.632Z,37.77
2019-02-28T15:49:10.983Z,34.73
2019-02-28T15:54:21.731Z,37.03
2019-02-28T15:59:27.823Z,36.50
2019-02-28T16:04:35.494Z,35.20
2019-02-28T16:09:43.788Z,35.50
2019-02-28T16:14:51.600Z,35.33
2019-02-28T16:20:01.175Z,35.63
2019-02-28T16:25:21.760Z,38.57
2019-02-28T16:30:32.167Z,34.03
2019-02-28T16:35:39.213Z,37.57
2019-02-28T16:40:45.288Z,35.63
2019-02-28T16:46:15.463Z,35.50
2019-02-28T16:51:21.884Z,35.97
2019-02-28T16:56:29.040Z,35.40
2019-02-28T17:01:36.054Z,37.27
2019-02-28T17:06:43.007Z,43.50
2019-02-28T17:12:08.413Z,44.90
2019-02-28T17:17:16.995Z,42.60
2019-02-28T17:22:27.017Z,39.10
2019-02-28T17:27:34.840Z,39.27
2019-02-28T17:32:42.459Z,39.63
2019-02-28T17:37:48.688Z,40.37
2019-02-28T17:42:54.686Z,38.73
2019-02-28T17:48:49.102Z,42.93
2019-02-28T17:54:25.625Z,43.97
2019-02-28T17:59:51.460Z,47.23
2019-02-28T18:05:36.472Z,48.23
2019-02-28T18:11:36.651Z,47.77
2019-02-28T18:17:05.698Z,49.70
2019-02-28T18:22:38.705Z,47.90
2019-02-28T18:28:26.397Z,49.73
2019-02-28T18:33:33.548Z,50.30
2019-02-28T18:38:40.406Z,50.70
2019-02-28T18:43:46.358Z,50.47
2019-02-28T18:48:55.650Z,51.27
2019-02-28T18:54:02.759Z,50.97
2019-02-28T18:59:09.999Z,50.70
2019-02-28T19:04:17.043Z,50.80
2019-02-28T19:09:24.309Z,51.37
2019-02-28T19:14:31.113Z,50.33
2019-02-28T19:19:37.654Z,50.37
2019-02-28T19:24:44.065Z,52.70
2019-02-28T19:29:50.060Z,52.03
2019-02-28T19:34:56.849Z,52.17
2019-02-28T19:40:03.584Z,53.43
2019-02-28T19:45:42.724Z,52.83
2019-02-28T19:50:50.181Z,55.03
2019-02-28T19:55:57.197Z,53.27
2019-02-28T20:01:05.494Z,54.07
2019-02-28T20:06:12.435Z,55.13
2019-02-28T20:11:19.207Z,53.90
2019-02-28T20:16:25.847Z,55.10
2019-02-28T20:21:32.455Z,55.93
2019-02-28T20:26:39.677Z,56.67
2019-02-28T20:31:45.637Z,54.97
2019-02-28T20:36:52.490Z,58.37
2019-02-28T20:41:59.700Z,59.77
2019-02-28T20:47:06.831Z,60.90
2019-02-28T20:52:14.390Z,60.27
2019-02-28T20:57:21.627Z,62.23
2019-02-28T21:02:28.610Z,61.80
2019-02-28T21:07:35.542Z,58.83
2019-02-28T21:12:42.504Z,58.43
2019-02-28T21:17:48.558Z,56.37
2019-02-28T21:22:54.621Z,55.17
2019-02-28T21:28:01.666Z,56.83
2019-02-28T21:33:09.627Z,56.57
2019-02-28T21:38:16.412Z,57.23
2019-02-28T21:43:23.053Z,57.37
2019-02-28T21:48:31.322Z,60.97
2019-02-28T21:53:38.184Z,57.13
2019-02-28T21:58:44.103Z,59.97
2019-02-28T22:03:50.172Z,58.47
2019-02-28T22:08:56.878Z,60.97
2019-02-28T22:14:03.535Z,62.50
2019-02-28T22:19:10.169Z,59.77
2019-02-28T22:24:17.028Z,61.37
2019-02-28T22:29:24.711Z,63.10
2019-02-28T22:34:34.092Z,61.87
2019-02-28T22:39:42.167Z,62.10
2019-02-28T22:44:48.085Z,65.70
2019-02-28T22:49:54.030Z,66.37
2019-02-28T22:55:03.024Z,61.03
2019-02-28T23:00:29.216Z,63.37
2019-02-28T23:05:37.301Z,60.00
2019-02-28T23:10:43.976Z,59.00
2019-02-28T23:15:49.913Z,57.67
2019-02-28T23:20:56.860Z,57.57
2019-02-28T23:26:12.214Z,59.50
2019-02-28T23:31:39.457Z,59.40
2019-02-28T23:36:46.415Z,60.70
2019-02-28T23:41:55.173Z,59.73
2019-02-28T23:47:01.933Z,59.87
2019-02-28T23:52:08.842Z,56.23
2019-02-28T23:57:15.666Z,54.53
